< Typhoon 201217 2012 Season Typhoon 201219 >
Typhoon 201218 (EWINIAR)
General InformationTrack Information on Google MapsDetailed Wind InformationAccess Analytics MapList of All Images || NewsDisaster Info.WeblogTrackbackTyphoon FrontTwiphoonTyphoon Now!Typhoon ImaginationResourceGoogle EarthGE AnimationAtom FeedGeoJSON
Detalied Best Track (Time Zone = UTC)
Year Month Day Hour Lat. Long. Pressure (hPa) Wind (kt) Class Image Chart
2012 9 23 06 15.6 140.5 1004 0 2 Image Chart
2012 9 23 12 16.7 140.3 1004 0 2 Image Chart
2012 9 23 18 17.6 139.8 1004 0 2 Image Chart
2012 9 24 00 18.5 139.1 1004 0 2 Image Chart
2012 9 24 06 19.4 138.8 1004 0 2 Image Chart
2012 9 24 12 20.3 138.5 1000 35 3 Image Chart
2012 9 24 18 21.2 138.4 998 35 3 Image Chart
2012 9 25 00 21.9 138.4 996 40 3 Image Chart
2012 9 25 06 22.7 138.5 996 40 3 Image Chart
2012 9 25 12 23.1 139.0 994 40 3 Image Chart
2012 9 25 18 24.3 140.5 990 45 3 Image Chart
2012 9 26 00 25.3 141.3 990 45 3 Image Chart
2012 9 26 03 25.7 141.4 990 45 3 Image Chart
2012 9 26 06 26.3 142.4 985 50 4 Image Chart
2012 9 26 09 27.1 142.6 985 50 4 Image Chart
2012 9 26 12 28.1 142.6 985 50 4 Image Chart
2012 9 26 18 29.1 142.5 985 50 4 Image Chart
2012 9 27 00 30.4 142.2 985 50 4 Image Chart
2012 9 27 06 31.2 142.1 985 50 4 Image Chart
2012 9 27 12 31.6 141.6 985 50 4 Image Chart
2012 9 27 18 31.4 141.7 985 50 4 Image Chart
2012 9 28 00 31.5 142.4 985 50 4 Image Chart
2012 9 28 06 31.9 143.1 985 50 4 Image Chart
2012 9 28 12 32.6 144.2 985 50 4 Image Chart
2012 9 28 18 33.5 145.0 985 50 4 Image Chart
2012 9 29 00 34.5 145.8 992 45 3 Image Chart
2012 9 29 06 36.5 147.3 992 45 3 Image Chart
2012 9 29 12 37.8 149.1 994 45 3 Image Chart
2012 9 29 18 39.2 151.1 996 40 3 Image Chart
2012 9 30 00 40.8 154.1 1000 0 6 Image Chart
2012 9 30 06 41.5 158.2 1004 0 6 Image Chart
2012 9 30 12 42.3 162.0 1002 0 6 Image Chart
2012 9 30 18 43.0 167.2 1002 0 6 Image Chart
Japan Meteorological Agency Best Track Data | Correction Date : 2012-10-24
< Typhoon 201217 2012 Season Typhoon 201219 >

Help